SBOSBO BRI / LIBD
Speedbird OnlineSpeedbird Online BRI / LIBD

Bari Karol Wojtyła Airport
20:41 19.9°C

Location Bari, Italy
Latitude: 41.138901
Longitude: 16.760599
Web Airport Website | Wikipedia
Altitude 54 Meter / 177 Feet
Distance 1,714 KM / 1,065 Miles
from London.
Time Zone UTC +2 hours (Europe/Rome)
Codes IATA: BRI
ICAO: LIBD
Currency £1 equals EUR 1.12
Runways
RunwayLength (m)Surface
073000Asphalt
12156Asphalt
253000Asphalt
30156Asphalt
Radio
TypeDescriptionFrequency
APPAPP119.5
TWRTWR118.3
Live ATC
METAR LIBD 241820Z 15007KT CAVOK 20/11 Q1017
TAF TAF LIBD 241700Z 2418/2518 19007KT 9999 FEW040
Weather As Of 24 Sep 2022 20:41
Description Clear sky
Wind 13 km/h from South-East (150°)
Cloud Cover 0%
Precipitation Rain: none, Snow: none
Sunrise 06:42
Sunset 18:48
Lounges Vip Lounge, Main terminal
Rotations During the last 90 days there were
63 flights from LGW
63 flights to LGW


© 2017-2022 Speedbird Online